sensor_id;sensor_type;location;lat;lon;timestamp;pressure;altitude;pressure_sealevel;temperature;humidity
56632;BME280;42503;39.928;-75.152;2023-01-15T00:04:51;101243.94;;;17.91;38.31
56632;BME280;42503;39.928;-75.152;2023-01-15T00:14:52;101217.28;;;17.85;38.08
56632;BME280;42503;39.928;-75.152;2023-01-15T00:24:54;101159.00;;;17.75;37.99
56632;BME280;42503;39.928;-75.152;2023-01-15T00:35:19;101144.19;;;17.86;37.60
56632;BME280;42503;39.928;-75.152;2023-01-15T00:45:21;101150.66;;;17.92;37.52
56632;BME280;42503;39.928;-75.152;2023-01-15T00:55:23;101171.44;;;17.94;37.54
56632;BME280;42503;39.928;-75.152;2023-01-15T01:05:24;101180.00;;;17.93;37.93
56632;BME280;42503;39.928;-75.152;2023-01-15T01:15:32;101159.59;;;17.99;38.10
56632;BME280;42503;39.928;-75.152;2023-01-15T01:25:33;101139.19;;;18.05;38.26
56632;BME280;42503;39.928;-75.152;2023-01-15T01:35:35;101202.44;;;18.13;37.78
56632;BME280;42503;39.928;-75.152;2023-01-15T01:45:42;101230.22;;;18.18;37.65
56632;BME280;42503;39.928;-75.152;2023-01-15T01:55:44;101185.38;;;18.21;37.31
56632;BME280;42503;39.928;-75.152;2023-01-15T02:05:51;101178.41;;;18.19;37.84
56632;BME280;42503;39.928;-75.152;2023-01-15T02:16:02;101317.31;;;18.27;37.69
56632;BME280;42503;39.928;-75.152;2023-01-15T02:26:19;101376.09;;;18.29;37.59
56632;BME280;42503;39.928;-75.152;2023-01-15T02:36:49;101351.50;;;18.33;37.52
56632;BME280;42503;39.928;-75.152;2023-01-15T02:46:53;101330.75;;;18.36;37.39
56632;BME280;42503;39.928;-75.152;2023-01-15T02:56:58;101329.66;;;18.37;37.55
56632;BME280;42503;39.928;-75.152;2023-01-15T03:17:20;101298.59;;;18.35;37.42
56632;BME280;42503;39.928;-75.152;2023-01-15T03:27:23;101325.22;;;18.36;36.88
56632;BME280;42503;39.928;-75.152;2023-01-15T03:37:26;101338.06;;;18.25;36.70
56632;BME280;42503;39.928;-75.152;2023-01-15T04:07:50;101316.59;;;18.15;36.50
56632;BME280;42503;39.928;-75.152;2023-01-15T04:17:52;101298.28;;;18.31;36.59
56632;BME280;42503;39.928;-75.152;2023-01-15T04:27:54;101311.56;;;18.29;36.57
56632;BME280;42503;39.928;-75.152;2023-01-15T04:37:59;101282.41;;;18.26;36.90
56632;BME280;42503;39.928;-75.152;2023-01-15T04:48:00;101276.31;;;18.24;36.68
56632;BME280;42503;39.928;-75.152;2023-01-15T04:58:02;101290.25;;;18.13;36.52
56632;BME280;42503;39.928;-75.152;2023-01-15T05:08:03;101310.03;;;18.21;36.56
56632;BME280;42503;39.928;-75.152;2023-01-15T05:18:05;101327.16;;;18.18;36.46
56632;BME280;42503;39.928;-75.152;2023-01-15T05:28:07;101362.50;;;18.11;36.59
56632;BME280;42503;39.928;-75.152;2023-01-15T05:38:08;101319.28;;;17.93;36.78
56632;BME280;42503;39.928;-75.152;2023-01-15T05:48:12;101345.28;;;18.09;36.67
56632;BME280;42503;39.928;-75.152;2023-01-15T05:58:13;101344.78;;;18.12;36.73
56632;BME280;42503;39.928;-75.152;2023-01-15T06:08:15;101347.00;;;18.10;36.53
56632;BME280;42503;39.928;-75.152;2023-01-15T06:18:16;101347.97;;;18.04;36.62
56632;BME280;42503;39.928;-75.152;2023-01-15T06:28:17;101377.34;;;18.05;36.65
56632;BME280;42503;39.928;-75.152;2023-01-15T06:38:21;101347.66;;;17.84;36.98
56632;BME280;42503;39.928;-75.152;2023-01-15T06:48:23;101375.31;;;18.00;36.97
56632;BME280;42503;39.928;-75.152;2023-01-15T06:58:24;101357.22;;;17.93;36.73
56632;BME280;42503;39.928;-75.152;2023-01-15T07:08:26;101357.38;;;18.03;36.73
56632;BME280;42503;39.928;-75.152;2023-01-15T07:18:31;101353.16;;;18.00;36.71
56632;BME280;42503;39.928;-75.152;2023-01-15T07:28:33;101339.31;;;18.00;36.87
56632;BME280;42503;39.928;-75.152;2023-01-15T07:38:35;101343.44;;;17.98;36.86
56632;BME280;42503;39.928;-75.152;2023-01-15T07:48:36;101327.66;;;17.82;36.75
56632;BME280;42503;39.928;-75.152;2023-01-15T07:58:56;101360.13;;;17.86;36.63
56632;BME280;42503;39.928;-75.152;2023-01-15T08:08:57;101392.13;;;17.94;36.86
56632;BME280;42503;39.928;-75.152;2023-01-15T08:18:59;101410.56;;;17.88;37.02
56632;BME280;42503;39.928;-75.152;2023-01-15T08:29:00;101443.28;;;17.91;36.97
56632;BME280;42503;39.928;-75.152;2023-01-15T08:39:02;101442.44;;;17.91;36.93
56632;BME280;42503;39.928;-75.152;2023-01-15T08:49:08;101464.00;;;17.89;36.80
56632;BME280;42503;39.928;-75.152;2023-01-15T08:59:10;101488.31;;;17.87;36.84
56632;BME280;42503;39.928;-75.152;2023-01-15T09:09:12;101486.56;;;17.81;36.92
56632;BME280;42503;39.928;-75.152;2023-01-15T09:19:13;101505.69;;;17.82;36.90
56632;BME280;42503;39.928;-75.152;2023-01-15T09:29:15;101525.19;;;17.87;36.80
56632;BME280;42503;39.928;-75.152;2023-01-15T09:39:16;101539.25;;;17.86;36.83
56632;BME280;42503;39.928;-75.152;2023-01-15T09:59:32;101567.13;;;17.96;36.93
56632;BME280;42503;39.928;-75.152;2023-01-15T10:09:39;101559.53;;;18.03;37.19
56632;BME280;42503;39.928;-75.152;2023-01-15T10:19:41;101569.53;;;18.04;37.23
56632;BME280;42503;39.928;-75.152;2023-01-15T10:29:51;101569.41;;;18.11;37.01
56632;BME280;42503;39.928;-75.152;2023-01-15T10:50:15;101533.31;;;18.22;37.30
56632;BME280;42503;39.928;-75.152;2023-01-15T11:00:17;101520.16;;;18.29;37.03
56632;BME280;42503;39.928;-75.152;2023-01-15T11:10:21;101521.25;;;18.28;37.24
56632;BME280;42503;39.928;-75.152;2023-01-15T11:20:41;101539.97;;;18.21;37.23
56632;BME280;42503;39.928;-75.152;2023-01-15T11:30:52;101541.25;;;18.31;37.35
56632;BME280;42503;39.928;-75.152;2023-01-15T11:40:57;101550.38;;;18.31;36.66
56632;BME280;42503;39.928;-75.152;2023-01-15T11:51:07;101545.44;;;18.33;36.89
56632;BME280;42503;39.928;-75.152;2023-01-15T12:01:28;101555.56;;;18.27;37.18
56632;BME280;42503;39.928;-75.152;2023-01-15T12:31:55;101601.72;;;18.34;36.83
56632;BME280;42503;39.928;-75.152;2023-01-15T12:42:04;101610.03;;;18.34;36.77
56632;BME280;42503;39.928;-75.152;2023-01-15T12:52:32;101598.78;;;18.12;36.91
56632;BME280;42503;39.928;-75.152;2023-01-15T13:12:40;101619.09;;;18.17;36.70
56632;BME280;42503;39.928;-75.152;2023-01-15T13:33:24;101664.81;;;18.32;37.06
56632;BME280;42503;39.928;-75.152;2023-01-15T13:43:36;101662.06;;;18.32;37.12
56632;BME280;42503;39.928;-75.152;2023-01-15T13:53:46;101684.72;;;18.28;37.29
56632;BME280;42503;39.928;-75.152;2023-01-15T14:04:30;101701.22;;;18.23;37.65
56632;BME280;42503;39.928;-75.152;2023-01-15T14:35:41;101721.81;;;18.27;37.67
56632;BME280;42503;39.928;-75.152;2023-01-15T14:45:46;101732.66;;;18.29;37.45
56632;BME280;42503;39.928;-75.152;2023-01-15T15:05:51;101750.59;;;18.26;38.16
56632;BME280;42503;39.928;-75.152;2023-01-15T15:16:18;101735.81;;;18.21;38.23
56632;BME280;42503;39.928;-75.152;2023-01-15T15:26:26;101730.63;;;18.24;38.41
56632;BME280;42503;39.928;-75.152;2023-01-15T15:36:30;101708.94;;;18.21;38.96
56632;BME280;42503;39.928;-75.152;2023-01-15T15:46:35;101718.94;;;18.22;38.70
56632;BME280;42503;39.928;-75.152;2023-01-15T16:07:32;101718.34;;;18.20;38.76
56632;BME280;42503;39.928;-75.152;2023-01-15T16:17:34;101723.38;;;18.23;39.18
56632;BME280;42503;39.928;-75.152;2023-01-15T16:27:37;101702.47;;;18.16;38.81
56632;BME280;42503;39.928;-75.152;2023-01-15T16:37:38;101679.47;;;18.03;38.62
56632;BME280;42503;39.928;-75.152;2023-01-15T16:48:08;101686.56;;;18.11;38.45
56632;BME280;42503;39.928;-75.152;2023-01-15T16:58:15;101674.50;;;18.17;38.16
56632;BME280;42503;39.928;-75.152;2023-01-15T17:08:25;101667.66;;;18.20;37.53
56632;BME280;42503;39.928;-75.152;2023-01-15T17:18:30;101669.06;;;18.22;37.23
56632;BME280;42503;39.928;-75.152;2023-01-15T17:28:31;101639.09;;;18.19;36.67
56632;BME280;42503;39.928;-75.152;2023-01-15T17:38:33;101636.56;;;18.18;37.09
56632;BME280;42503;39.928;-75.152;2023-01-15T17:48:35;101619.59;;;18.14;38.59
56632;BME280;42503;39.928;-75.152;2023-01-15T17:58:36;101625.94;;;18.26;36.49
56632;BME280;42503;39.928;-75.152;2023-01-15T18:08:57;101579.13;;;18.13;36.60
56632;BME280;42503;39.928;-75.152;2023-01-15T18:19:00;101586.66;;;18.29;36.91
56632;BME280;42503;39.928;-75.152;2023-01-15T18:29:02;101586.69;;;18.18;39.30
56632;BME280;42503;39.928;-75.152;2023-01-15T18:39:07;101561.31;;;18.09;38.90
56632;BME280;42503;39.928;-75.152;2023-01-15T18:49:12;101539.03;;;18.16;38.35
56632;BME280;42503;39.928;-75.152;2023-01-15T18:59:16;101513.47;;;17.97;38.32
56632;BME280;42503;39.928;-75.152;2023-01-15T19:09:18;101518.72;;;18.10;38.22
56632;BME280;42503;39.928;-75.152;2023-01-15T19:19:24;101543.75;;;18.32;37.99
56632;BME280;42503;39.928;-75.152;2023-01-15T19:29:25;101526.63;;;18.35;37.98
56632;BME280;42503;39.928;-75.152;2023-01-15T19:39:27;101530.94;;;18.43;38.23
56632;BME280;42503;39.928;-75.152;2023-01-15T19:49:34;101539.34;;;18.48;37.66
56632;BME280;42503;39.928;-75.152;2023-01-15T19:59:54;101530.69;;;18.44;38.14
56632;BME280;42503;39.928;-75.152;2023-01-15T20:09:55;101538.94;;;18.56;37.49
56632;BME280;42503;39.928;-75.152;2023-01-15T20:19:57;101526.91;;;18.50;37.62
56632;BME280;42503;39.928;-75.152;2023-01-15T20:29:59;101541.78;;;18.61;37.65
56632;BME280;42503;39.928;-75.152;2023-01-15T20:40:06;101556.22;;;18.63;37.33
56632;BME280;42503;39.928;-75.152;2023-01-15T20:50:10;101569.00;;;18.64;37.54
56632;BME280;42503;39.928;-75.152;2023-01-15T21:00:18;101559.59;;;18.65;37.16
56632;BME280;42503;39.928;-75.152;2023-01-15T21:10:21;101472.19;;;18.12;37.12
56632;BME280;42503;39.928;-75.152;2023-01-15T21:20:23;101556.16;;;18.58;37.07
56632;BME280;42503;39.928;-75.152;2023-01-15T21:30:24;101572.63;;;18.65;37.05
56632;BME280;42503;39.928;-75.152;2023-01-15T21:40:28;101602.59;;;18.68;37.11
56632;BME280;42503;39.928;-75.152;2023-01-15T21:50:30;101584.28;;;18.67;36.78
56632;BME280;42503;39.928;-75.152;2023-01-15T22:00:31;101583.47;;;18.66;36.94
56632;BME280;42503;39.928;-75.152;2023-01-15T22:10:32;101592.53;;;18.62;36.78
56632;BME280;42503;39.928;-75.152;2023-01-15T22:20:34;101590.00;;;18.60;37.07
56632;BME280;42503;39.928;-75.152;2023-01-15T22:30:37;101600.59;;;18.63;37.09
56632;BME280;42503;39.928;-75.152;2023-01-15T22:40:38;101613.34;;;18.64;36.92
56632;BME280;42503;39.928;-75.152;2023-01-15T22:50:39;101617.72;;;18.60;37.04
56632;BME280;42503;39.928;-75.152;2023-01-15T23:00:41;101624.31;;;18.71;40.95
56632;BME280;42503;39.928;-75.152;2023-01-15T23:10:45;101626.34;;;18.75;40.14
56632;BME280;42503;39.928;-75.152;2023-01-15T23:20:47;101625.50;;;18.75;40.96
56632;BME280;42503;39.928;-75.152;2023-01-15T23:30:51;101609.00;;;18.68;40.90
56632;BME280;42503;39.928;-75.152;2023-01-15T23:40:53;101628.88;;;18.77;40.72
56632;BME280;42503;39.928;-75.152;2023-01-15T23:50:55;101610.28;;;18.77;39.98
